sensor_id;sensor_type;location;lat;lon;timestamp;P1;durP1;ratioP1;P2;durP2;ratioP2
25435;SDS011;13363;52.772;-3.890;2024-03-02T00:02:25;1.43;;;0.83;;
25435;SDS011;13363;52.772;-3.890;2024-03-02T00:04:51;0.83;;;0.83;;
25435;SDS011;13363;52.772;-3.890;2024-03-02T00:07:17;0.90;;;0.90;;
25435;SDS011;13363;52.772;-3.890;2024-03-02T00:09:44;0.60;;;0.60;;
25435;SDS011;13363;52.772;-3.890;2024-03-02T00:12:11;1.07;;;0.80;;
25435;SDS011;13363;52.772;-3.890;2024-03-02T00:14:39;1.03;;;0.93;;
25435;SDS011;13363;52.772;-3.890;2024-03-02T00:17:06;3.27;;;0.90;;
25435;SDS011;13363;52.772;-3.890;2024-03-02T00:19:38;1.60;;;1.43;;
25435;SDS011;13363;52.772;-3.890;2024-03-02T00:22:05;1.30;;;0.83;;
25435;SDS011;13363;52.772;-3.890;2024-03-02T00:24:31;0.80;;;0.80;;
25435;SDS011;13363;52.772;-3.890;2024-03-02T00:26:58;1.60;;;1.10;;
25435;SDS011;13363;52.772;-3.890;2024-03-02T00:29:24;0.73;;;0.73;;
25435;SDS011;13363;52.772;-3.890;2024-03-02T00:31:50;1.17;;;1.10;;
25435;SDS011;13363;52.772;-3.890;2024-03-02T00:34:18;1.07;;;0.97;;
25435;SDS011;13363;52.772;-3.890;2024-03-02T00:36:44;1.07;;;1.00;;
25435;SDS011;13363;52.772;-3.890;2024-03-02T00:39:11;0.70;;;0.70;;
25435;SDS011;13363;52.772;-3.890;2024-03-02T00:41:38;1.83;;;1.10;;
25435;SDS011;13363;52.772;-3.890;2024-03-02T00:44:10;1.30;;;0.77;;
25435;SDS011;13363;52.772;-3.890;2024-03-02T00:46:38;1.30;;;1.20;;
25435;SDS011;13363;52.772;-3.890;2024-03-02T00:49:05;0.77;;;0.77;;
25435;SDS011;13363;52.772;-3.890;2024-03-02T00:51:33;1.20;;;0.80;;
25435;SDS011;13363;52.772;-3.890;2024-03-02T00:54:02;1.80;;;0.83;;
25435;SDS011;13363;52.772;-3.890;2024-03-02T00:56:29;4.43;;;0.90;;
25435;SDS011;13363;52.772;-3.890;2024-03-02T00:58:56;1.17;;;0.80;;
25435;SDS011;13363;52.772;-3.890;2024-03-02T01:01:22;2.03;;;0.80;;
25435;SDS011;13363;52.772;-3.890;2024-03-02T01:03:49;1.13;;;0.80;;
25435;SDS011;13363;52.772;-3.890;2024-03-02T01:06:15;0.80;;;0.80;;
25435;SDS011;13363;52.772;-3.890;2024-03-02T01:08:42;0.87;;;0.87;;
25435;SDS011;13363;52.772;-3.890;2024-03-02T01:11:08;0.80;;;0.80;;
25435;SDS011;13363;52.772;-3.890;2024-03-02T01:13:34;2.57;;;0.90;;
25435;SDS011;13363;52.772;-3.890;2024-03-02T01:16:01;1.00;;;0.90;;
25435;SDS011;13363;52.772;-3.890;2024-03-02T01:18:27;0.93;;;0.63;;
25435;SDS011;13363;52.772;-3.890;2024-03-02T01:20:54;0.93;;;0.83;;
25435;SDS011;13363;52.772;-3.890;2024-03-02T01:23:23;1.43;;;1.10;;
25435;SDS011;13363;52.772;-3.890;2024-03-02T01:25:50;0.90;;;0.90;;
25435;SDS011;13363;52.772;-3.890;2024-03-02T01:28:17;0.97;;;0.70;;
25435;SDS011;13363;52.772;-3.890;2024-03-02T01:30:44;0.93;;;0.93;;
25435;SDS011;13363;52.772;-3.890;2024-03-02T01:33:10;0.87;;;0.87;;
25435;SDS011;13363;52.772;-3.890;2024-03-02T01:35:36;0.60;;;0.60;;
25435;SDS011;13363;52.772;-3.890;2024-03-02T01:38:03;0.67;;;0.67;;
25435;SDS011;13363;52.772;-3.890;2024-03-02T01:40:31;1.50;;;1.13;;
25435;SDS011;13363;52.772;-3.890;2024-03-02T01:42:57;0.80;;;0.80;;
25435;SDS011;13363;52.772;-3.890;2024-03-02T01:45:24;1.03;;;1.03;;
25435;SDS011;13363;52.772;-3.890;2024-03-02T01:47:50;4.33;;;1.60;;
25435;SDS011;13363;52.772;-3.890;2024-03-02T01:50:24;1.20;;;0.70;;
25435;SDS011;13363;52.772;-3.890;2024-03-02T01:52:50;1.07;;;1.07;;
25435;SDS011;13363;52.772;-3.890;2024-03-02T01:55:17;1.03;;;1.00;;
25435;SDS011;13363;52.772;-3.890;2024-03-02T01:57:43;0.60;;;0.60;;
25435;SDS011;13363;52.772;-3.890;2024-03-02T02:00:10;0.80;;;0.80;;
25435;SDS011;13363;52.772;-3.890;2024-03-02T02:02:36;0.60;;;0.60;;
25435;SDS011;13363;52.772;-3.890;2024-03-02T02:05:02;1.03;;;0.60;;
25435;SDS011;13363;52.772;-3.890;2024-03-02T02:07:29;0.57;;;0.57;;
25435;SDS011;13363;52.772;-3.890;2024-03-02T02:09:56;0.83;;;0.83;;
25435;SDS011;13363;52.772;-3.890;2024-03-02T02:12:23;0.70;;;0.70;;
25435;SDS011;13363;52.772;-3.890;2024-03-02T02:14:49;0.97;;;0.97;;
25435;SDS011;13363;52.772;-3.890;2024-03-02T02:17:16;0.83;;;0.70;;
25435;SDS011;13363;52.772;-3.890;2024-03-02T02:19:42;0.70;;;0.70;;
25435;SDS011;13363;52.772;-3.890;2024-03-02T02:22:09;0.90;;;0.90;;
25435;SDS011;13363;52.772;-3.890;2024-03-02T02:24:35;0.90;;;0.90;;
25435;SDS011;13363;52.772;-3.890;2024-03-02T02:27:01;1.20;;;0.97;;
25435;SDS011;13363;52.772;-3.890;2024-03-02T02:29:27;4.43;;;1.27;;
25435;SDS011;13363;52.772;-3.890;2024-03-02T02:31:53;1.07;;;0.80;;
25435;SDS011;13363;52.772;-3.890;2024-03-02T02:34:19;1.30;;;0.90;;
25435;SDS011;13363;52.772;-3.890;2024-03-02T02:36:46;1.10;;;0.93;;
25435;SDS011;13363;52.772;-3.890;2024-03-02T02:39:13;0.90;;;0.90;;
25435;SDS011;13363;52.772;-3.890;2024-03-02T02:41:41;1.33;;;1.23;;
25435;SDS011;13363;52.772;-3.890;2024-03-02T02:44:07;1.47;;;1.00;;
25435;SDS011;13363;52.772;-3.890;2024-03-02T02:46:36;0.67;;;0.67;;
25435;SDS011;13363;52.772;-3.890;2024-03-02T02:49:03;1.07;;;0.60;;
25435;SDS011;13363;52.772;-3.890;2024-03-02T02:51:29;1.23;;;0.87;;
25435;SDS011;13363;52.772;-3.890;2024-03-02T02:53:55;1.40;;;1.30;;
25435;SDS011;13363;52.772;-3.890;2024-03-02T02:56:21;2.40;;;1.57;;
25435;SDS011;13363;52.772;-3.890;2024-03-02T02:58:48;1.10;;;1.00;;
25435;SDS011;13363;52.772;-3.890;2024-03-02T03:01:15;1.30;;;1.20;;
25435;SDS011;13363;52.772;-3.890;2024-03-02T03:03:44;2.10;;;1.20;;
25435;SDS011;13363;52.772;-3.890;2024-03-02T03:06:11;1.40;;;1.30;;
25435;SDS011;13363;52.772;-3.890;2024-03-02T03:08:37;1.33;;;1.30;;
25435;SDS011;13363;52.772;-3.890;2024-03-02T03:11:04;1.57;;;1.47;;
25435;SDS011;13363;52.772;-3.890;2024-03-02T03:13:33;1.70;;;1.60;;
25435;SDS011;13363;52.772;-3.890;2024-03-02T03:15:59;5.03;;;2.00;;
25435;SDS011;13363;52.772;-3.890;2024-03-02T03:18:26;1.70;;;1.60;;
25435;SDS011;13363;52.772;-3.890;2024-03-02T03:20:52;1.50;;;1.40;;
25435;SDS011;13363;52.772;-3.890;2024-03-02T03:23:18;2.53;;;2.10;;
25435;SDS011;13363;52.772;-3.890;2024-03-02T03:25:45;2.57;;;2.03;;
25435;SDS011;13363;52.772;-3.890;2024-03-02T03:28:12;1.97;;;1.87;;
25435;SDS011;13363;52.772;-3.890;2024-03-02T03:30:38;2.43;;;2.23;;
25435;SDS011;13363;52.772;-3.890;2024-03-02T03:33:05;2.20;;;2.10;;
25435;SDS011;13363;52.772;-3.890;2024-03-02T03:35:31;2.60;;;2.30;;
25435;SDS011;13363;52.772;-3.890;2024-03-02T03:37:58;2.07;;;1.97;;
25435;SDS011;13363;52.772;-3.890;2024-03-02T03:40:24;5.83;;;2.57;;
25435;SDS011;13363;52.772;-3.890;2024-03-02T03:42:51;3.40;;;2.63;;
25435;SDS011;13363;52.772;-3.890;2024-03-02T03:45:17;3.93;;;2.57;;
25435;SDS011;13363;52.772;-3.890;2024-03-02T03:47:43;5.77;;;3.07;;
25435;SDS011;13363;52.772;-3.890;2024-03-02T03:50:09;2.70;;;2.50;;
25435;SDS011;13363;52.772;-3.890;2024-03-02T03:52:35;2.70;;;2.50;;
25435;SDS011;13363;52.772;-3.890;2024-03-02T03:55:02;2.73;;;2.43;;
25435;SDS011;13363;52.772;-3.890;2024-03-02T03:57:28;2.87;;;2.70;;
25435;SDS011;13363;52.772;-3.890;2024-03-02T03:59:54;2.83;;;2.60;;
25435;SDS011;13363;52.772;-3.890;2024-03-02T04:02:20;3.30;;;2.77;;
25435;SDS011;13363;52.772;-3.890;2024-03-02T04:04:46;3.27;;;3.00;;
25435;SDS011;13363;52.772;-3.890;2024-03-02T04:07:13;2.80;;;2.60;;
25435;SDS011;13363;52.772;-3.890;2024-03-02T04:09:39;2.43;;;2.30;;
25435;SDS011;13363;52.772;-3.890;2024-03-02T04:12:05;2.43;;;2.30;;
25435;SDS011;13363;52.772;-3.890;2024-03-02T04:14:31;2.23;;;2.10;;
25435;SDS011;13363;52.772;-3.890;2024-03-02T04:16:57;3.40;;;2.70;;
25435;SDS011;13363;52.772;-3.890;2024-03-02T04:19:24;4.50;;;2.53;;
25435;SDS011;13363;52.772;-3.890;2024-03-02T04:21:50;3.13;;;2.50;;
25435;SDS011;13363;52.772;-3.890;2024-03-02T04:24:16;4.93;;;2.70;;
25435;SDS011;13363;52.772;-3.890;2024-03-02T04:26:42;2.63;;;2.43;;
25435;SDS011;13363;52.772;-3.890;2024-03-02T04:29:08;3.20;;;3.00;;
25435;SDS011;13363;52.772;-3.890;2024-03-02T04:31:34;3.57;;;2.83;;
25435;SDS011;13363;52.772;-3.890;2024-03-02T04:34:00;5.07;;;3.27;;
25435;SDS011;13363;52.772;-3.890;2024-03-02T04:36:26;4.10;;;3.80;;
25435;SDS011;13363;52.772;-3.890;2024-03-02T04:38:53;5.97;;;3.20;;
25435;SDS011;13363;52.772;-3.890;2024-03-02T04:41:19;4.10;;;3.10;;
25435;SDS011;13363;52.772;-3.890;2024-03-02T04:43:45;3.40;;;3.10;;
25435;SDS011;13363;52.772;-3.890;2024-03-02T04:46:11;3.53;;;3.23;;
25435;SDS011;13363;52.772;-3.890;2024-03-02T04:48:37;3.27;;;2.97;;
25435;SDS011;13363;52.772;-3.890;2024-03-02T04:51:03;3.27;;;3.00;;
25435;SDS011;13363;52.772;-3.890;2024-03-02T04:53:30;3.17;;;2.97;;
25435;SDS011;13363;52.772;-3.890;2024-03-02T04:55:56;5.10;;;3.57;;
25435;SDS011;13363;52.772;-3.890;2024-03-02T04:58:45;4.00;;;3.27;;
25435;SDS011;13363;52.772;-3.890;2024-03-02T05:01:11;3.60;;;3.37;;
25435;SDS011;13363;52.772;-3.890;2024-03-02T05:03:37;3.77;;;3.47;;
25435;SDS011;13363;52.772;-3.890;2024-03-02T05:06:03;3.73;;;3.43;;
25435;SDS011;13363;52.772;-3.890;2024-03-02T05:08:30;4.73;;;3.60;;
25435;SDS011;13363;52.772;-3.890;2024-03-02T05:10:56;3.43;;;3.13;;
25435;SDS011;13363;52.772;-3.890;2024-03-02T05:13:42;5.37;;;3.47;;
25435;SDS011;13363;52.772;-3.890;2024-03-02T05:16:08;3.60;;;3.30;;
25435;SDS011;13363;52.772;-3.890;2024-03-02T05:18:34;4.53;;;3.67;;
25435;SDS011;13363;52.772;-3.890;2024-03-02T05:21:00;4.13;;;3.83;;
25435;SDS011;13363;52.772;-3.890;2024-03-02T05:23:26;3.40;;;3.10;;
25435;SDS011;13363;52.772;-3.890;2024-03-02T05:25:52;3.37;;;2.80;;
25435;SDS011;13363;52.772;-3.890;2024-03-02T05:28:19;2.77;;;2.60;;
25435;SDS011;13363;52.772;-3.890;2024-03-02T05:30:45;4.33;;;3.53;;
25435;SDS011;13363;52.772;-3.890;2024-03-02T05:33:12;4.77;;;3.33;;
25435;SDS011;13363;52.772;-3.890;2024-03-02T05:35:38;3.43;;;3.07;;
25435;SDS011;13363;52.772;-3.890;2024-03-02T05:38:04;3.07;;;2.87;;
25435;SDS011;13363;52.772;-3.890;2024-03-02T05:40:31;2.87;;;2.67;;
25435;SDS011;13363;52.772;-3.890;2024-03-02T05:42:57;4.70;;;3.03;;
25435;SDS011;13363;52.772;-3.890;2024-03-02T05:45:23;2.90;;;2.70;;
25435;SDS011;13363;52.772;-3.890;2024-03-02T05:47:49;3.03;;;2.83;;
25435;SDS011;13363;52.772;-3.890;2024-03-02T05:50:15;3.13;;;2.83;;
25435;SDS011;13363;52.772;-3.890;2024-03-02T05:52:41;3.30;;;3.00;;
25435;SDS011;13363;52.772;-3.890;2024-03-02T05:55:07;3.33;;;2.93;;
25435;SDS011;13363;52.772;-3.890;2024-03-02T05:57:34;3.73;;;3.47;;
25435;SDS011;13363;52.772;-3.890;2024-03-02T06:00:09;5.60;;;3.60;;
25435;SDS011;13363;52.772;-3.890;2024-03-02T06:02:38;3.90;;;3.60;;
25435;SDS011;13363;52.772;-3.890;2024-03-02T06:05:05;3.73;;;3.43;;
25435;SDS011;13363;52.772;-3.890;2024-03-02T06:07:32;4.47;;;3.47;;
25435;SDS011;13363;52.772;-3.890;2024-03-02T06:09:58;3.53;;;2.93;;
25435;SDS011;13363;52.772;-3.890;2024-03-02T06:12:24;3.47;;;2.87;;
25435;SDS011;13363;52.772;-3.890;2024-03-02T06:14:50;10.23;;;3.73;;
25435;SDS011;13363;52.772;-3.890;2024-03-02T06:17:17;3.00;;;2.80;;
25435;SDS011;13363;52.772;-3.890;2024-03-02T06:19:44;4.73;;;3.27;;
25435;SDS011;13363;52.772;-3.890;2024-03-02T06:22:10;3.40;;;2.73;;
25435;SDS011;13363;52.772;-3.890;2024-03-02T06:24:36;3.13;;;2.83;;
25435;SDS011;13363;52.772;-3.890;2024-03-02T06:27:05;3.00;;;2.80;;
25435;SDS011;13363;52.772;-3.890;2024-03-02T06:29:34;3.17;;;2.53;;
25435;SDS011;13363;52.772;-3.890;2024-03-02T06:32:01;3.40;;;3.10;;
25435;SDS011;13363;52.772;-3.890;2024-03-02T06:34:27;2.70;;;2.47;;
25435;SDS011;13363;52.772;-3.890;2024-03-02T06:36:53;2.93;;;2.60;;
25435;SDS011;13363;52.772;-3.890;2024-03-02T06:39:19;2.97;;;2.67;;
25435;SDS011;13363;52.772;-3.890;2024-03-02T06:41:45;2.97;;;2.47;;
25435;SDS011;13363;52.772;-3.890;2024-03-02T06:44:14;4.13;;;2.77;;
25435;SDS011;13363;52.772;-3.890;2024-03-02T06:46:40;3.03;;;2.73;;
25435;SDS011;13363;52.772;-3.890;2024-03-02T06:49:06;3.20;;;2.90;;
25435;SDS011;13363;52.772;-3.890;2024-03-02T06:51:34;2.67;;;2.47;;
25435;SDS011;13363;52.772;-3.890;2024-03-02T06:54:00;2.80;;;2.60;;
25435;SDS011;13363;52.772;-3.890;2024-03-02T06:56:27;3.27;;;2.57;;
25435;SDS011;13363;52.772;-3.890;2024-03-02T06:58:53;2.73;;;2.53;;
25435;SDS011;13363;52.772;-3.890;2024-03-02T07:01:19;3.73;;;2.80;;
25435;SDS011;13363;52.772;-3.890;2024-03-02T07:03:45;4.27;;;2.97;;
25435;SDS011;13363;52.772;-3.890;2024-03-02T07:06:11;3.07;;;2.87;;
25435;SDS011;13363;52.772;-3.890;2024-03-02T07:08:37;2.80;;;2.60;;
25435;SDS011;13363;52.772;-3.890;2024-03-02T07:11:03;4.50;;;3.07;;
25435;SDS011;13363;52.772;-3.890;2024-03-02T07:13:30;4.97;;;2.77;;
25435;SDS011;13363;52.772;-3.890;2024-03-02T07:15:56;3.20;;;2.90;;
25435;SDS011;13363;52.772;-3.890;2024-03-02T07:18:25;4.23;;;2.77;;
25435;SDS011;13363;52.772;-3.890;2024-03-02T07:20:51;4.00;;;3.60;;
25435;SDS011;13363;52.772;-3.890;2024-03-02T07:23:17;3.03;;;2.83;;
25435;SDS011;13363;52.772;-3.890;2024-03-02T07:25:44;2.60;;;2.40;;
25435;SDS011;13363;52.772;-3.890;2024-03-02T07:28:10;4.57;;;2.40;;
25435;SDS011;13363;52.772;-3.890;2024-03-02T07:30:37;3.17;;;2.97;;
25435;SDS011;13363;52.772;-3.890;2024-03-02T07:33:04;3.50;;;3.30;;
25435;SDS011;13363;52.772;-3.890;2024-03-02T07:35:30;3.47;;;3.00;;
25435;SDS011;13363;52.772;-3.890;2024-03-02T07:37:56;3.67;;;3.40;;
25435;SDS011;13363;52.772;-3.890;2024-03-02T07:40:23;2.80;;;2.60;;
25435;SDS011;13363;52.772;-3.890;2024-03-02T07:42:49;2.90;;;2.70;;
25435;SDS011;13363;52.772;-3.890;2024-03-02T07:45:15;3.13;;;2.83;;
25435;SDS011;13363;52.772;-3.890;2024-03-02T07:47:42;3.10;;;2.90;;
25435;SDS011;13363;52.772;-3.890;2024-03-02T07:50:08;4.07;;;2.80;;
25435;SDS011;13363;52.772;-3.890;2024-03-02T07:52:34;2.60;;;2.40;;
25435;SDS011;13363;52.772;-3.890;2024-03-02T07:55:00;2.83;;;2.63;;
25435;SDS011;13363;52.772;-3.890;2024-03-02T07:57:26;2.67;;;2.47;;
25435;SDS011;13363;52.772;-3.890;2024-03-02T07:59:52;2.63;;;2.43;;
25435;SDS011;13363;52.772;-3.890;2024-03-02T08:02:19;2.33;;;2.13;;
25435;SDS011;13363;52.772;-3.890;2024-03-02T08:04:45;3.10;;;1.67;;
25435;SDS011;13363;52.772;-3.890;2024-03-02T08:07:11;2.10;;;1.90;;
25435;SDS011;13363;52.772;-3.890;2024-03-02T08:09:38;2.80;;;2.60;;
25435;SDS011;13363;52.772;-3.890;2024-03-02T08:12:04;2.10;;;2.00;;
25435;SDS011;13363;52.772;-3.890;2024-03-02T08:14:30;2.03;;;1.80;;
25435;SDS011;13363;52.772;-3.890;2024-03-02T08:16:56;2.10;;;2.00;;
25435;SDS011;13363;52.772;-3.890;2024-03-02T08:19:22;2.30;;;2.10;;
25435;SDS011;13363;52.772;-3.890;2024-03-02T08:21:49;2.33;;;2.20;;
25435;SDS011;13363;52.772;-3.890;2024-03-02T08:24:15;5.37;;;2.53;;
25435;SDS011;13363;52.772;-3.890;2024-03-02T08:26:41;4.63;;;2.27;;
25435;SDS011;13363;52.772;-3.890;2024-03-02T08:29:08;2.53;;;2.20;;
25435;SDS011;13363;52.772;-3.890;2024-03-02T08:31:34;2.50;;;2.30;;
25435;SDS011;13363;52.772;-3.890;2024-03-02T08:34:00;2.67;;;2.20;;
25435;SDS011;13363;52.772;-3.890;2024-03-02T08:36:27;1.97;;;1.87;;
25435;SDS011;13363;52.772;-3.890;2024-03-02T08:38:53;2.40;;;1.93;;
25435;SDS011;13363;52.772;-3.890;2024-03-02T08:41:19;2.43;;;2.23;;
25435;SDS011;13363;52.772;-3.890;2024-03-02T08:43:45;2.73;;;2.07;;
25435;SDS011;13363;52.772;-3.890;2024-03-02T08:46:12;2.10;;;2.00;;
25435;SDS011;13363;52.772;-3.890;2024-03-02T08:48:38;2.93;;;2.10;;
25435;SDS011;13363;52.772;-3.890;2024-03-02T08:51:05;2.60;;;1.90;;
25435;SDS011;13363;52.772;-3.890;2024-03-02T08:53:33;2.17;;;2.07;;
25435;SDS011;13363;52.772;-3.890;2024-03-02T08:55:59;3.17;;;2.23;;
25435;SDS011;13363;52.772;-3.890;2024-03-02T08:58:25;2.47;;;2.27;;
25435;SDS011;13363;52.772;-3.890;2024-03-02T09:00:51;2.47;;;2.23;;
25435;SDS011;13363;52.772;-3.890;2024-03-02T09:03:17;1.90;;;1.70;;
25435;SDS011;13363;52.772;-3.890;2024-03-02T09:05:44;3.37;;;1.70;;
25435;SDS011;13363;52.772;-3.890;2024-03-02T09:08:10;5.43;;;2.10;;
25435;SDS011;13363;52.772;-3.890;2024-03-02T09:10:36;1.87;;;1.77;;
25435;SDS011;13363;52.772;-3.890;2024-03-02T09:13:04;1.80;;;1.70;;
25435;SDS011;13363;52.772;-3.890;2024-03-02T09:15:30;3.07;;;1.90;;
25435;SDS011;13363;52.772;-3.890;2024-03-02T09:17:57;1.93;;;1.70;;
25435;SDS011;13363;52.772;-3.890;2024-03-02T09:20:23;2.00;;;1.90;;
25435;SDS011;13363;52.772;-3.890;2024-03-02T09:22:49;2.13;;;2.03;;
25435;SDS011;13363;52.772;-3.890;2024-03-02T09:25:15;3.50;;;2.10;;
25435;SDS011;13363;52.772;-3.890;2024-03-02T09:27:41;1.80;;;1.70;;
25435;SDS011;13363;52.772;-3.890;2024-03-02T09:30:08;2.10;;;2.00;;
25435;SDS011;13363;52.772;-3.890;2024-03-02T09:32:35;2.60;;;2.07;;
25435;SDS011;13363;52.772;-3.890;2024-03-02T09:35:01;2.27;;;2.07;;
25435;SDS011;13363;52.772;-3.890;2024-03-02T09:37:28;2.33;;;2.00;;
25435;SDS011;13363;52.772;-3.890;2024-03-02T09:39:54;2.33;;;1.80;;
25435;SDS011;13363;52.772;-3.890;2024-03-02T09:42:20;2.53;;;1.87;;
25435;SDS011;13363;52.772;-3.890;2024-03-02T09:44:47;1.97;;;1.70;;
25435;SDS011;13363;52.772;-3.890;2024-03-02T09:47:13;2.07;;;1.97;;
25435;SDS011;13363;52.772;-3.890;2024-03-02T09:49:40;2.00;;;1.90;;
25435;SDS011;13363;52.772;-3.890;2024-03-02T09:52:06;1.90;;;1.80;;
25435;SDS011;13363;52.772;-3.890;2024-03-02T09:54:33;2.00;;;1.80;;
25435;SDS011;13363;52.772;-3.890;2024-03-02T09:56:59;2.20;;;2.00;;
25435;SDS011;13363;52.772;-3.890;2024-03-02T09:59:27;2.50;;;2.30;;
25435;SDS011;13363;52.772;-3.890;2024-03-02T10:02:01;1.93;;;1.83;;
25435;SDS011;13363;52.772;-3.890;2024-03-02T10:04:28;2.20;;;2.00;;
25435;SDS011;13363;52.772;-3.890;2024-03-02T10:07:11;2.73;;;2.27;;
25435;SDS011;13363;52.772;-3.890;2024-03-02T10:09:39;2.70;;;2.40;;
25435;SDS011;13363;52.772;-3.890;2024-03-02T10:12:09;3.00;;;2.67;;
25435;SDS011;13363;52.772;-3.890;2024-03-02T10:14:39;3.03;;;2.80;;
25435;SDS011;13363;52.772;-3.890;2024-03-02T10:17:09;3.33;;;3.03;;
25435;SDS011;13363;52.772;-3.890;2024-03-02T10:19:40;3.07;;;2.83;;
25435;SDS011;13363;52.772;-3.890;2024-03-02T10:22:09;3.20;;;3.00;;
25435;SDS011;13363;52.772;-3.890;2024-03-02T10:24:45;3.50;;;3.30;;
25435;SDS011;13363;52.772;-3.890;2024-03-02T10:27:15;3.83;;;3.53;;
25435;SDS011;13363;52.772;-3.890;2024-03-02T10:29:46;3.23;;;3.03;;
25435;SDS011;13363;52.772;-3.890;2024-03-02T10:32:15;3.83;;;2.57;;
25435;SDS011;13363;52.772;-3.890;2024-03-02T10:34:44;3.37;;;2.50;;
25435;SDS011;13363;52.772;-3.890;2024-03-02T10:37:13;3.10;;;2.80;;
25435;SDS011;13363;52.772;-3.890;2024-03-02T10:39:43;4.03;;;3.27;;
25435;SDS011;13363;52.772;-3.890;2024-03-02T10:42:12;3.30;;;3.07;;
25435;SDS011;13363;52.772;-3.890;2024-03-02T10:44:42;3.20;;;2.93;;
25435;SDS011;13363;52.772;-3.890;2024-03-02T10:47:10;3.80;;;3.33;;
25435;SDS011;13363;52.772;-3.890;2024-03-02T10:49:40;3.83;;;3.43;;
25435;SDS011;13363;52.772;-3.890;2024-03-02T10:52:12;4.13;;;3.47;;
25435;SDS011;13363;52.772;-3.890;2024-03-02T10:54:38;3.43;;;3.13;;
25435;SDS011;13363;52.772;-3.890;2024-03-02T10:57:05;3.03;;;2.83;;
25435;SDS011;13363;52.772;-3.890;2024-03-02T10:59:37;3.47;;;3.27;;
25435;SDS011;13363;52.772;-3.890;2024-03-02T11:02:07;3.40;;;3.20;;
25435;SDS011;13363;52.772;-3.890;2024-03-02T11:04:36;5.27;;;3.50;;
25435;SDS011;13363;52.772;-3.890;2024-03-02T11:07:05;4.40;;;4.00;;
25435;SDS011;13363;52.772;-3.890;2024-03-02T11:09:35;3.80;;;3.50;;
25435;SDS011;13363;52.772;-3.890;2024-03-02T11:12:03;3.63;;;3.33;;
25435;SDS011;13363;52.772;-3.890;2024-03-02T11:14:32;3.70;;;3.47;;
25435;SDS011;13363;52.772;-3.890;2024-03-02T11:16:58;3.30;;;3.10;;
25435;SDS011;13363;52.772;-3.890;2024-03-02T11:19:25;4.17;;;3.53;;
25435;SDS011;13363;52.772;-3.890;2024-03-02T11:21:52;3.90;;;3.47;;
25435;SDS011;13363;52.772;-3.890;2024-03-02T11:26:49;3.53;;;3.30;;
25435;SDS011;13363;52.772;-3.890;2024-03-02T11:32:04;3.17;;;2.97;;
25435;SDS011;13363;52.772;-3.890;2024-03-02T11:34:36;3.77;;;3.47;;
25435;SDS011;13363;52.772;-3.890;2024-03-02T11:37:05;3.23;;;3.03;;
25435;SDS011;13363;52.772;-3.890;2024-03-02T11:39:31;3.30;;;3.00;;
25435;SDS011;13363;52.772;-3.890;2024-03-02T11:41:58;2.87;;;2.60;;
25435;SDS011;13363;52.772;-3.890;2024-03-02T11:44:28;3.07;;;2.87;;
25435;SDS011;13363;52.772;-3.890;2024-03-02T11:46:58;2.90;;;2.70;;
25435;SDS011;13363;52.772;-3.890;2024-03-02T11:52:12;3.27;;;2.30;;
25435;SDS011;13363;52.772;-3.890;2024-03-02T11:54:44;3.27;;;2.97;;
25435;SDS011;13363;52.772;-3.890;2024-03-02T11:57:16;2.23;;;2.13;;
25435;SDS011;13363;52.772;-3.890;2024-03-02T11:59:56;2.37;;;2.17;;
25435;SDS011;13363;52.772;-3.890;2024-03-02T12:02:27;2.40;;;2.20;;
25435;SDS011;13363;52.772;-3.890;2024-03-02T12:04:55;4.40;;;2.17;;
25435;SDS011;13363;52.772;-3.890;2024-03-02T12:07:27;2.20;;;2.10;;
25435;SDS011;13363;52.772;-3.890;2024-03-02T12:10:09;2.13;;;1.80;;
25435;SDS011;13363;52.772;-3.890;2024-03-02T12:12:38;3.90;;;1.80;;
25435;SDS011;13363;52.772;-3.890;2024-03-02T12:15:04;1.70;;;1.60;;
25435;SDS011;13363;52.772;-3.890;2024-03-02T12:17:31;1.33;;;1.30;;
25435;SDS011;13363;52.772;-3.890;2024-03-02T12:19:57;2.80;;;1.77;;
25435;SDS011;13363;52.772;-3.890;2024-03-02T12:22:23;2.00;;;1.60;;
25435;SDS011;13363;52.772;-3.890;2024-03-02T12:24:49;1.87;;;1.63;;
25435;SDS011;13363;52.772;-3.890;2024-03-02T12:27:15;1.10;;;1.10;;
25435;SDS011;13363;52.772;-3.890;2024-03-02T12:29:43;1.30;;;1.20;;
25435;SDS011;13363;52.772;-3.890;2024-03-02T12:32:09;1.47;;;1.37;;
25435;SDS011;13363;52.772;-3.890;2024-03-02T12:34:35;2.70;;;1.60;;
25435;SDS011;13363;52.772;-3.890;2024-03-02T12:37:03;1.20;;;1.20;;
25435;SDS011;13363;52.772;-3.890;2024-03-02T12:39:30;2.30;;;1.50;;
25435;SDS011;13363;52.772;-3.890;2024-03-02T12:41:58;1.50;;;1.40;;
25435;SDS011;13363;52.772;-3.890;2024-03-02T12:44:27;2.70;;;1.53;;
25435;SDS011;13363;52.772;-3.890;2024-03-02T12:46:54;1.37;;;1.37;;
25435;SDS011;13363;52.772;-3.890;2024-03-02T12:49:23;1.07;;;1.07;;
25435;SDS011;13363;52.772;-3.890;2024-03-02T12:51:55;2.77;;;1.50;;
25435;SDS011;13363;52.772;-3.890;2024-03-02T12:54:25;2.23;;;1.63;;
25435;SDS011;13363;52.772;-3.890;2024-03-02T12:56:54;1.20;;;1.17;;
25435;SDS011;13363;52.772;-3.890;2024-03-02T12:59:24;1.20;;;1.10;;
25435;SDS011;13363;52.772;-3.890;2024-03-02T13:01:52;1.13;;;1.03;;
25435;SDS011;13363;52.772;-3.890;2024-03-02T13:04:22;3.20;;;1.40;;
25435;SDS011;13363;52.772;-3.890;2024-03-02T13:06:52;2.33;;;1.37;;
25435;SDS011;13363;52.772;-3.890;2024-03-02T13:09:22;1.10;;;1.10;;
25435;SDS011;13363;52.772;-3.890;2024-03-02T13:11:51;1.17;;;1.07;;
25435;SDS011;13363;52.772;-3.890;2024-03-02T13:14:17;1.23;;;1.17;;
25435;SDS011;13363;52.772;-3.890;2024-03-02T13:16:44;0.97;;;0.97;;
25435;SDS011;13363;52.772;-3.890;2024-03-02T13:19:12;1.10;;;1.10;;
25435;SDS011;13363;52.772;-3.890;2024-03-02T13:21:38;1.00;;;1.00;;
25435;SDS011;13363;52.772;-3.890;2024-03-02T13:24:05;1.00;;;1.00;;
25435;SDS011;13363;52.772;-3.890;2024-03-02T13:26:31;1.23;;;1.13;;
25435;SDS011;13363;52.772;-3.890;2024-03-02T13:28:57;1.10;;;1.00;;
25435;SDS011;13363;52.772;-3.890;2024-03-02T13:31:23;1.77;;;1.20;;
25435;SDS011;13363;52.772;-3.890;2024-03-02T13:33:49;1.00;;;1.00;;
25435;SDS011;13363;52.772;-3.890;2024-03-02T13:36:16;1.37;;;1.27;;
25435;SDS011;13363;52.772;-3.890;2024-03-02T13:38:42;1.30;;;1.20;;
25435;SDS011;13363;52.772;-3.890;2024-03-02T13:41:08;1.47;;;1.00;;
25435;SDS011;13363;52.772;-3.890;2024-03-02T13:43:35;0.70;;;0.70;;
25435;SDS011;13363;52.772;-3.890;2024-03-02T13:46:05;0.83;;;0.83;;
25435;SDS011;13363;52.772;-3.890;2024-03-02T13:48:34;1.90;;;1.00;;
25435;SDS011;13363;52.772;-3.890;2024-03-02T13:51:01;1.00;;;1.00;;
25435;SDS011;13363;52.772;-3.890;2024-03-02T13:53:28;1.30;;;0.90;;
25435;SDS011;13363;52.772;-3.890;2024-03-02T13:55:54;0.90;;;0.90;;
25435;SDS011;13363;52.772;-3.890;2024-03-02T13:58:20;3.17;;;1.00;;
25435;SDS011;13363;52.772;-3.890;2024-03-02T14:00:46;1.90;;;1.30;;
25435;SDS011;13363;52.772;-3.890;2024-03-02T14:03:13;0.93;;;0.93;;
25435;SDS011;13363;52.772;-3.890;2024-03-02T14:05:39;1.83;;;0.90;;
25435;SDS011;13363;52.772;-3.890;2024-03-02T14:08:05;0.60;;;0.60;;
25435;SDS011;13363;52.772;-3.890;2024-03-02T14:10:32;0.80;;;0.80;;
25435;SDS011;13363;52.772;-3.890;2024-03-02T14:12:58;1.30;;;1.20;;
25435;SDS011;13363;52.772;-3.890;2024-03-02T14:15:24;0.80;;;0.80;;
25435;SDS011;13363;52.772;-3.890;2024-03-02T14:17:50;0.70;;;0.70;;
25435;SDS011;13363;52.772;-3.890;2024-03-02T14:20:17;1.60;;;1.00;;
25435;SDS011;13363;52.772;-3.890;2024-03-02T14:22:48;1.00;;;0.80;;
25435;SDS011;13363;52.772;-3.890;2024-03-02T14:25:17;0.80;;;0.80;;
25435;SDS011;13363;52.772;-3.890;2024-03-02T14:27:45;1.07;;;1.07;;
25435;SDS011;13363;52.772;-3.890;2024-03-02T14:30:13;0.77;;;0.70;;
25435;SDS011;13363;52.772;-3.890;2024-03-02T14:32:41;0.93;;;0.93;;
25435;SDS011;13363;52.772;-3.890;2024-03-02T14:35:10;1.50;;;0.80;;
25435;SDS011;13363;52.772;-3.890;2024-03-02T14:37:41;1.03;;;0.90;;
25435;SDS011;13363;52.772;-3.890;2024-03-02T14:40:11;0.90;;;0.90;;
25435;SDS011;13363;52.772;-3.890;2024-03-02T14:42:40;0.87;;;0.77;;